createdAt,value
2018-12-26T00:00:32.210Z,21.87
2018-12-26T00:02:59.262Z,21.62
2018-12-26T00:05:26.392Z,21.52
2018-12-26T00:07:53.572Z,21.57
2018-12-26T00:10:20.645Z,20.55
2018-12-26T00:12:47.676Z,20.88
2018-12-26T00:15:14.734Z,20.37
2018-12-26T00:17:41.793Z,20.00
2018-12-26T00:20:08.856Z,20.45
2018-12-26T00:22:35.896Z,21.85
2018-12-26T00:25:03.005Z,18.82
2018-12-26T00:27:30.033Z,21.02
2018-12-26T00:29:57.102Z,21.68
2018-12-26T00:32:24.140Z,19.80
2018-12-26T00:34:51.185Z,24.30
2018-12-26T00:37:18.249Z,19.90
2018-12-26T00:39:45.309Z,19.90
2018-12-26T00:42:12.391Z,20.30
2018-12-26T00:44:39.475Z,20.48
2018-12-26T00:47:06.562Z,19.05
2018-12-26T00:49:33.591Z,21.40
2018-12-26T00:52:00.625Z,24.37
2018-12-26T00:54:27.707Z,25.00
2018-12-26T00:56:54.745Z,20.65
2018-12-26T00:59:21.810Z,21.42
2018-12-26T01:01:48.838Z,21.10
2018-12-26T01:04:15.902Z,27.40
2018-12-26T01:06:42.956Z,28.83
2018-12-26T01:09:10.035Z,26.65
2018-12-26T01:11:37.075Z,21.52
2018-12-26T01:14:04.166Z,21.45
2018-12-26T01:16:31.226Z,21.90
2018-12-26T01:18:58.326Z,22.40
2018-12-26T01:21:25.381Z,23.42
2018-12-26T01:23:52.440Z,21.80
2018-12-26T01:26:19.551Z,22.05
2018-12-26T01:28:46.639Z,20.65
2018-12-26T01:31:13.730Z,22.00
2018-12-26T01:33:40.757Z,20.10
2018-12-26T01:36:07.806Z,20.88
2018-12-26T01:38:34.863Z,24.60
2018-12-26T01:41:01.914Z,26.48
2018-12-26T01:43:28.987Z,24.20
2018-12-26T01:45:56.052Z,23.67
2018-12-26T01:48:23.080Z,22.70
2018-12-26T01:50:50.131Z,21.45
2018-12-26T01:53:17.182Z,21.25
2018-12-26T01:55:44.207Z,21.00
2018-12-26T01:58:11.274Z,21.68
2018-12-26T02:00:38.320Z,21.52
2018-12-26T02:03:05.393Z,20.17
2018-12-26T02:05:32.438Z,19.07
2018-12-26T02:07:59.510Z,20.48
2018-12-26T02:10:26.562Z,20.85
2018-12-26T02:12:53.611Z,19.17
2018-12-26T02:15:20.654Z,19.87
2018-12-26T02:17:47.714Z,21.62
2018-12-26T02:20:14.746Z,22.42
2018-12-26T02:22:41.788Z,23.73
2018-12-26T02:25:08.829Z,21.62
2018-12-26T02:27:35.887Z,21.80
2018-12-26T02:30:03.559Z,23.30
2018-12-26T02:32:30.590Z,21.48
2018-12-26T02:34:57.656Z,21.75
2018-12-26T02:37:24.701Z,22.02
2018-12-26T02:39:51.749Z,20.90
2018-12-26T02:42:18.795Z,19.42
2018-12-26T02:44:45.863Z,20.90
2018-12-26T02:47:12.898Z,20.77
2018-12-26T02:49:39.940Z,20.20
2018-12-26T02:52:06.989Z,23.05
2018-12-26T02:54:34.052Z,22.17
2018-12-26T02:57:01.095Z,19.25
2018-12-26T02:59:28.129Z,21.73
2018-12-26T03:01:55.196Z,21.40
2018-12-26T03:04:22.237Z,21.23
2018-12-26T03:06:49.367Z,20.32
2018-12-26T03:09:16.400Z,21.05
2018-12-26T03:11:43.452Z,22.13
2018-12-26T03:14:10.475Z,21.05
2018-12-26T03:16:37.523Z,21.25
2018-12-26T03:19:04.580Z,20.00
2018-12-26T03:21:31.640Z,23.92
2018-12-26T03:23:58.673Z,22.90
2018-12-26T03:26:25.716Z,20.90
2018-12-26T03:28:52.762Z,22.10
2018-12-26T03:31:19.827Z,24.23
2018-12-26T03:33:46.871Z,22.60
2018-12-26T03:36:13.919Z,21.37
2018-12-26T03:38:40.967Z,20.57
2018-12-26T03:41:08.216Z,21.42
2018-12-26T03:43:35.271Z,20.40
2018-12-26T03:46:02.529Z,21.75
2018-12-26T03:48:30.364Z,21.30
2018-12-26T03:50:57.438Z,21.87
2018-12-26T03:53:24.476Z,21.00
2018-12-26T03:55:51.518Z,22.48
2018-12-26T03:58:18.544Z,21.27
2018-12-26T04:00:45.604Z,21.82
2018-12-26T04:03:12.655Z,20.68
2018-12-26T04:05:39.715Z,21.80
2018-12-26T04:08:06.748Z,19.57
2018-12-26T04:10:33.799Z,19.40
2018-12-26T04:13:00.826Z,18.98
2018-12-26T04:15:28.098Z,21.42
2018-12-26T04:17:55.120Z,23.92
2018-12-26T04:20:22.246Z,24.82
2018-12-26T04:22:49.288Z,23.52
2018-12-26T04:25:16.519Z,22.48
2018-12-26T04:27:43.574Z,22.77
2018-12-26T04:30:10.625Z,22.55
2018-12-26T04:32:37.675Z,22.25
2018-12-26T04:35:04.702Z,19.98
2018-12-26T04:37:31.774Z,21.48
2018-12-26T04:39:58.831Z,22.35
2018-12-26T04:42:25.870Z,23.85
2018-12-26T04:44:53.170Z,25.35
2018-12-26T04:47:20.214Z,22.98
2018-12-26T04:49:47.262Z,21.45
2018-12-26T04:52:14.284Z,22.00
2018-12-26T04:54:41.322Z,22.98
2018-12-26T04:57:08.358Z,21.45
2018-12-26T04:59:35.409Z,21.87
2018-12-26T05:02:02.448Z,19.82
2018-12-26T05:04:29.491Z,23.25
2018-12-26T05:06:56.524Z,23.77
2018-12-26T05:09:23.557Z,24.80
2018-12-26T05:11:50.602Z,25.00
2018-12-26T05:14:17.628Z,23.77
2018-12-26T05:16:44.691Z,24.32
2018-12-26T05:19:11.731Z,21.15
2018-12-26T05:21:38.761Z,19.12
2018-12-26T05:24:05.803Z,20.10
2018-12-26T05:26:32.865Z,19.55
2018-12-26T05:28:59.881Z,18.15
2018-12-26T05:31:26.904Z,18.80
2018-12-26T05:33:53.968Z,20.10
2018-12-26T05:36:20.985Z,18.60
2018-12-26T05:38:48.019Z,17.75
2018-12-26T05:41:15.042Z,18.27
2018-12-26T05:43:42.103Z,17.32
2018-12-26T05:46:09.138Z,16.75
2018-12-26T05:48:36.185Z,16.15
2018-12-26T05:51:03.457Z,17.98
2018-12-26T05:53:30.537Z,16.37
2018-12-26T05:55:57.556Z,15.65
2018-12-26T05:58:24.571Z,15.48
2018-12-26T06:00:51.624Z,17.52
2018-12-26T06:03:18.653Z,16.60
2018-12-26T06:05:45.689Z,16.62
2018-12-26T06:08:12.735Z,17.37
2018-12-26T06:10:39.798Z,16.10
2018-12-26T06:13:06.818Z,16.65
2018-12-26T06:15:33.873Z,16.07
2018-12-26T06:18:00.922Z,16.95
2018-12-26T06:20:27.937Z,16.25
2018-12-26T06:22:54.978Z,17.32
2018-12-26T06:25:22.008Z,18.45
2018-12-26T06:27:51.498Z,17.60
2018-12-26T06:30:17.985Z,17.98
2018-12-26T06:32:45.029Z,20.48
2018-12-26T06:35:12.073Z,20.27
2018-12-26T06:37:39.126Z,21.37
2018-12-26T06:40:06.177Z,19.60
2018-12-26T06:42:33.241Z,21.17
2018-12-26T06:45:00.310Z,19.00
2018-12-26T06:47:27.357Z,21.20
2018-12-26T06:49:54.435Z,25.95
2018-12-26T06:52:21.485Z,22.77
2018-12-26T06:54:48.558Z,24.85
2018-12-26T06:57:15.597Z,22.45
2018-12-26T06:59:42.667Z,20.10
2018-12-26T07:02:09.703Z,22.27
2018-12-26T07:04:36.817Z,19.57
2018-12-26T07:07:03.901Z,23.30
2018-12-26T07:09:30.963Z,23.35
2018-12-26T07:11:58.027Z,19.73
2018-12-26T07:14:25.099Z,23.00
2018-12-26T07:16:52.231Z,20.02
2018-12-26T07:19:19.309Z,21.50
2018-12-26T07:21:47.911Z,21.90
2018-12-26T07:24:15.029Z,23.87
2018-12-26T07:26:42.071Z,21.55
2018-12-26T07:29:09.160Z,19.17
2018-12-26T07:31:36.225Z,22.48
2018-12-26T07:34:03.509Z,19.82
2018-12-26T07:36:30.547Z,20.52
2018-12-26T07:38:57.631Z,20.30
2018-12-26T07:41:24.752Z,20.10
2018-12-26T07:43:51.811Z,22.20
2018-12-26T07:46:18.873Z,20.25
2018-12-26T07:48:45.919Z,25.52
2018-12-26T07:51:12.997Z,22.22
2018-12-26T07:53:40.050Z,25.12
2018-12-26T07:56:07.107Z,22.50
2018-12-26T07:58:34.139Z,23.47
2018-12-26T08:01:02.999Z,21.10
2018-12-26T08:03:30.159Z,21.52
2018-12-26T08:05:57.171Z,22.00
2018-12-26T08:08:24.206Z,17.92
2018-12-26T08:10:51.264Z,20.48
2018-12-26T08:13:18.318Z,23.02
2018-12-26T08:15:45.371Z,23.92
2018-12-26T08:18:12.442Z,21.62
2018-12-26T08:20:39.467Z,20.65
2018-12-26T08:23:06.506Z,19.07
2018-12-26T08:25:33.560Z,18.15
2018-12-26T08:28:00.600Z,18.87
2018-12-26T08:30:28.507Z,19.37
2018-12-26T08:32:55.559Z,19.17
2018-12-26T08:35:22.634Z,21.40
2018-12-26T08:37:49.676Z,19.17
2018-12-26T08:40:16.769Z,22.40
2018-12-26T08:42:43.814Z,20.70
2018-12-26T08:45:10.881Z,20.40
2018-12-26T08:47:37.935Z,20.05
2018-12-26T08:50:06.226Z,21.10
2018-12-26T08:52:33.290Z,22.10
2018-12-26T08:55:00.327Z,21.17
2018-12-26T08:57:27.386Z,23.95
2018-12-26T08:59:54.428Z,51.20
2018-12-26T09:02:21.497Z,34.98
2018-12-26T09:04:48.560Z,28.65
2018-12-26T09:07:15.617Z,33.85
2018-12-26T09:09:42.688Z,16.90
2018-12-26T09:12:09.767Z,15.90
2018-12-26T09:14:36.820Z,16.32
2018-12-26T09:17:03.877Z,14.50
2018-12-26T09:19:30.956Z,14.80
2018-12-26T09:21:57.995Z,15.60
2018-12-26T09:24:25.159Z,16.90
2018-12-26T09:26:52.205Z,16.32
2018-12-26T09:29:19.254Z,19.07
2018-12-26T09:31:46.341Z,18.60
2018-12-26T09:34:13.356Z,19.60
2018-12-26T09:36:40.415Z,20.55
2018-12-26T09:39:07.466Z,16.55
2018-12-26T09:41:34.530Z,20.40
2018-12-26T09:44:01.580Z,16.67
2018-12-26T09:46:28.643Z,20.45
2018-12-26T09:48:55.686Z,17.17
2018-12-26T09:51:22.719Z,11.05
2018-12-26T09:53:49.773Z,12.88
2018-12-26T09:56:16.814Z,9.55
2018-12-26T09:58:52.315Z,10.13
2018-12-26T10:01:12.808Z,6.65
2018-12-26T10:03:39.857Z,5.35
2018-12-26T10:06:06.892Z,5.50
2018-12-26T10:08:33.961Z,5.97
2018-12-26T10:11:01.013Z,6.92
2018-12-26T10:13:28.070Z,5.80
2018-12-26T10:15:55.123Z,5.47
2018-12-26T10:18:22.197Z,7.08
2018-12-26T10:20:49.267Z,5.83
2018-12-26T10:23:16.288Z,6.03
2018-12-26T10:25:43.336Z,5.90
2018-12-26T10:28:10.388Z,6.03
2018-12-26T10:30:37.498Z,6.12
2018-12-26T10:33:04.553Z,5.53
2018-12-26T10:35:31.614Z,5.00
2018-12-26T10:37:58.671Z,4.95
2018-12-26T10:40:25.722Z,4.90
2018-12-26T10:42:52.757Z,4.47
2018-12-26T10:45:19.826Z,4.95
2018-12-26T10:47:46.857Z,5.37
2018-12-26T10:50:13.900Z,5.25
2018-12-26T10:52:40.959Z,5.03
2018-12-26T10:55:08.001Z,4.85
2018-12-26T10:57:35.097Z,4.85
2018-12-26T11:00:02.164Z,4.45
2018-12-26T11:02:29.208Z,4.33
2018-12-26T11:04:56.251Z,5.03
2018-12-26T11:07:23.300Z,4.72
2018-12-26T11:09:50.359Z,4.35
2018-12-26T11:12:17.816Z,3.90
2018-12-26T11:14:44.917Z,3.92
2018-12-26T11:17:11.989Z,4.62
2018-12-26T11:19:39.155Z,4.30
2018-12-26T11:22:06.195Z,4.60
2018-12-26T11:24:33.267Z,4.33
2018-12-26T11:27:00.313Z,5.28
2018-12-26T11:29:27.363Z,4.08
2018-12-26T11:31:54.424Z,4.95
2018-12-26T11:34:21.501Z,4.53
2018-12-26T11:36:48.602Z,4.70
2018-12-26T11:39:15.645Z,6.40
2018-12-26T11:41:44.613Z,4.92
2018-12-26T11:44:11.675Z,5.50
2018-12-26T11:46:38.741Z,5.50
2018-12-26T11:49:05.797Z,4.08
2018-12-26T11:51:32.865Z,4.42
2018-12-26T11:53:59.987Z,4.92
2018-12-26T11:56:27.038Z,4.72
2018-12-26T11:58:54.095Z,4.20
2018-12-26T12:01:21.142Z,5.00
2018-12-26T12:03:48.232Z,4.87
2018-12-26T12:06:15.273Z,6.28
2018-12-26T12:08:42.359Z,4.15
2018-12-26T12:11:09.418Z,5.45
2018-12-26T12:13:36.480Z,5.12
2018-12-26T12:16:03.526Z,4.12
2018-12-26T12:18:30.594Z,5.10
2018-12-26T12:20:57.637Z,4.75
2018-12-26T12:23:24.675Z,4.62
2018-12-26T12:25:51.736Z,4.75
2018-12-26T12:28:18.778Z,4.85
2018-12-26T12:30:45.861Z,4.60
2018-12-26T12:33:12.915Z,4.72
2018-12-26T12:35:40.006Z,12.65
2018-12-26T12:38:07.052Z,16.10
2018-12-26T12:40:34.350Z,5.45
2018-12-26T12:43:01.429Z,4.55
2018-12-26T12:45:28.464Z,4.03
2018-12-26T12:47:55.633Z,4.67
2018-12-26T12:50:22.718Z,4.35
2018-12-26T12:52:49.778Z,4.75
2018-12-26T12:55:16.846Z,4.15
2018-12-26T12:57:43.926Z,4.60
2018-12-26T13:00:10.981Z,4.05
2018-12-26T13:02:38.049Z,4.03
2018-12-26T13:05:05.146Z,8.35
2018-12-26T13:07:32.170Z,9.20
2018-12-26T13:09:59.247Z,10.98
2018-12-26T13:12:26.298Z,4.70
2018-12-26T13:14:53.408Z,5.95
2018-12-26T13:17:20.429Z,5.55
2018-12-26T13:19:47.481Z,7.95
2018-12-26T13:22:14.559Z,10.85
2018-12-26T13:24:41.643Z,5.62
2018-12-26T13:27:08.695Z,8.08
2018-12-26T13:29:35.768Z,7.22
2018-12-26T13:32:02.871Z,8.30
2018-12-26T13:34:29.919Z,9.45
2018-12-26T13:36:57.320Z,9.00
2018-12-26T13:39:24.413Z,9.50
2018-12-26T13:41:51.485Z,9.58
2018-12-26T13:44:18.536Z,11.10
2018-12-26T13:46:45.664Z,10.93
2018-12-26T13:49:12.730Z,9.05
2018-12-26T13:51:39.830Z,9.28
2018-12-26T13:54:06.902Z,10.95
2018-12-26T13:56:33.960Z,10.68
2018-12-26T13:59:01.046Z,10.82
2018-12-26T14:01:28.659Z,11.05
2018-12-26T14:03:55.742Z,12.30
2018-12-26T14:06:22.895Z,12.50
2018-12-26T14:08:49.956Z,12.80
2018-12-26T14:11:17.004Z,14.03
2018-12-26T14:13:44.409Z,15.55
2018-12-26T14:16:11.450Z,16.30
2018-12-26T14:18:38.536Z,12.68
2018-12-26T14:21:05.618Z,11.50
2018-12-26T14:23:32.684Z,13.15
2018-12-26T14:25:59.760Z,11.08
2018-12-26T14:28:26.822Z,12.90
2018-12-26T14:30:53.909Z,11.88
2018-12-26T14:33:20.971Z,12.78
2018-12-26T14:35:58.015Z,11.40
2018-12-26T14:38:25.402Z,11.30
2018-12-26T14:40:52.495Z,12.33
2018-12-26T14:43:19.573Z,13.03
2018-12-26T14:45:46.662Z,13.18
2018-12-26T14:48:13.747Z,13.72
2018-12-26T14:50:40.800Z,12.78
2018-12-26T14:53:07.908Z,12.10
2018-12-26T14:55:34.961Z,12.43
2018-12-26T14:58:02.068Z,14.58
2018-12-26T15:00:29.187Z,13.65
2018-12-26T15:02:56.357Z,15.88
2018-12-26T15:05:23.461Z,15.48
2018-12-26T15:07:50.571Z,14.25
2018-12-26T15:10:17.706Z,16.32
2018-12-26T15:12:44.776Z,13.28
2018-12-26T15:15:11.862Z,14.63
2018-12-26T15:17:38.955Z,13.15
2018-12-26T15:20:06.309Z,14.43
2018-12-26T15:22:33.406Z,15.43
2018-12-26T15:25:00.555Z,15.05
2018-12-26T15:27:27.643Z,14.80
2018-12-26T15:29:54.769Z,14.65
2018-12-26T15:32:21.891Z,15.50
2018-12-26T15:34:49.003Z,14.50
2018-12-26T15:37:16.133Z,15.20
2018-12-26T15:39:43.211Z,14.07
2018-12-26T15:42:10.351Z,19.15
2018-12-26T15:44:37.463Z,31.40
2018-12-26T15:47:04.687Z,27.13
2018-12-26T15:49:31.839Z,19.15
2018-12-26T15:51:59.011Z,19.07
2018-12-26T15:54:26.150Z,18.82
2018-12-26T15:56:53.246Z,17.62
2018-12-26T15:59:20.382Z,16.60
2018-12-26T16:01:47.797Z,17.90
2018-12-26T16:04:14.959Z,18.50
2018-12-26T16:06:42.111Z,22.65
2018-12-26T16:09:09.212Z,20.23
2018-12-26T16:11:36.365Z,19.37
2018-12-26T16:14:03.473Z,20.35
2018-12-26T16:16:30.607Z,19.25
2018-12-26T16:18:58.675Z,19.50
2018-12-26T16:21:25.826Z,19.75
2018-12-26T16:23:52.977Z,19.52
2018-12-26T16:26:20.101Z,19.67
2018-12-26T16:28:47.214Z,19.40
2018-12-26T16:31:14.361Z,18.48
2018-12-26T16:33:41.788Z,16.93
2018-12-26T16:36:08.927Z,18.12
2018-12-26T16:38:36.081Z,17.70
2018-12-26T16:41:03.225Z,18.35
2018-12-26T16:43:30.334Z,18.07
2018-12-26T16:45:57.431Z,22.22
2018-12-26T16:48:24.609Z,24.82
2018-12-26T16:50:51.736Z,22.45
2018-12-26T16:53:18.906Z,22.32
2018-12-26T16:55:46.021Z,31.33
2018-12-26T16:58:13.159Z,31.95
2018-12-26T17:00:40.289Z,29.23
2018-12-26T17:03:07.647Z,25.55
2018-12-26T17:05:34.821Z,25.45
2018-12-26T17:08:01.968Z,22.50
2018-12-26T17:10:29.110Z,20.95
2018-12-26T17:12:56.231Z,18.40
2018-12-26T17:15:23.387Z,19.35
2018-12-26T17:17:50.546Z,20.40
2018-12-26T17:20:17.761Z,21.17
2018-12-26T17:22:44.872Z,20.08
2018-12-26T17:25:12.190Z,22.70
2018-12-26T17:27:39.343Z,21.82
2018-12-26T17:30:06.962Z,22.20
2018-12-26T17:32:34.153Z,19.82
2018-12-26T17:35:01.314Z,21.77
2018-12-26T17:37:28.490Z,26.30
2018-12-26T17:39:55.648Z,25.48
2018-12-26T17:42:22.946Z,23.90
2018-12-26T17:44:52.304Z,25.72
2018-12-26T17:47:19.452Z,26.17
2018-12-26T17:49:46.589Z,26.25
2018-12-26T17:52:14.045Z,24.77
2018-12-26T17:55:18.927Z,24.72
2018-12-26T17:57:48.456Z,47.85
2018-12-26T18:00:34.587Z,33.30
2018-12-26T18:03:01.685Z,26.95
2018-12-26T18:05:28.816Z,26.42
2018-12-26T18:07:55.961Z,25.02
2018-12-26T18:10:23.059Z,26.68
2018-12-26T18:12:50.201Z,24.45
2018-12-26T18:15:17.323Z,26.00
2018-12-26T18:17:44.460Z,27.22
2018-12-26T18:20:13.394Z,27.95
2018-12-26T18:22:40.572Z,32.88
2018-12-26T18:25:07.958Z,32.33
2018-12-26T18:27:35.072Z,34.75
2018-12-26T18:30:03.057Z,34.40
2018-12-26T18:32:30.170Z,39.18
2018-12-26T18:34:57.337Z,36.40
2018-12-26T18:37:24.494Z,31.82
2018-12-26T18:39:51.661Z,25.32
2018-12-26T18:42:18.809Z,22.77
2018-12-26T18:44:46.061Z,20.15
2018-12-26T18:47:14.005Z,21.37
2018-12-26T18:49:43.612Z,22.50
2018-12-26T18:52:10.784Z,20.77
2018-12-26T18:54:37.903Z,19.82
2018-12-26T18:57:05.100Z,21.40
2018-12-26T18:59:32.577Z,22.37
2018-12-26T19:01:59.702Z,20.95
2018-12-26T19:04:26.857Z,20.25
2018-12-26T19:06:53.987Z,24.07
2018-12-26T19:09:21.198Z,31.62
2018-12-26T19:11:48.414Z,34.80
2018-12-26T19:14:17.591Z,28.83
2018-12-26T19:16:44.969Z,22.58
2018-12-26T19:19:12.160Z,22.60
2018-12-26T19:21:40.125Z,22.77
2018-12-26T19:24:07.232Z,22.40
2018-12-26T19:26:36.897Z,30.40
2018-12-26T19:29:04.048Z,34.78
2018-12-26T19:31:39.455Z,32.13
2018-12-26T19:34:03.948Z,32.08
2018-12-26T19:36:31.150Z,31.23
2018-12-26T19:38:58.294Z,32.45
2018-12-26T19:41:26.517Z,26.65
2018-12-26T19:43:53.817Z,22.80
2018-12-26T19:46:21.462Z,23.80
2018-12-26T19:48:50.561Z,24.95
2018-12-26T19:51:17.823Z,21.57
2018-12-26T19:53:45.158Z,22.17
2018-12-26T19:56:12.472Z,22.70
2018-12-26T19:58:39.890Z,24.15
2018-12-26T20:01:10.399Z,25.62
2018-12-26T20:03:37.720Z,23.95
2018-12-26T20:06:05.192Z,25.40
2018-12-26T20:08:32.405Z,24.50
2018-12-26T20:10:59.702Z,22.80
2018-12-26T20:13:26.959Z,23.90
2018-12-26T20:15:56.596Z,25.40
2018-12-26T20:18:24.330Z,24.30
2018-12-26T20:20:52.007Z,24.60
2018-12-26T20:23:21.330Z,22.35
2018-12-26T20:25:49.091Z,26.37
2018-12-26T20:28:19.686Z,25.17
2018-12-26T20:30:48.061Z,23.32
2018-12-26T20:33:18.189Z,28.27
2018-12-26T20:35:46.285Z,23.40
2018-12-26T20:38:13.783Z,24.43
2018-12-26T20:40:46.047Z,24.12
2018-12-26T20:43:13.985Z,23.85
2018-12-26T20:45:41.469Z,22.95
2018-12-26T20:48:09.386Z,24.23
2018-12-26T20:50:38.414Z,25.80
2018-12-26T20:53:05.943Z,26.52
2018-12-26T20:55:33.384Z,25.32
2018-12-26T20:58:06.447Z,24.90
2018-12-26T21:00:34.457Z,25.62
2018-12-26T21:03:01.917Z,26.30
2018-12-26T21:05:29.993Z,26.73
2018-12-26T21:07:57.668Z,28.62
2018-12-26T21:10:25.403Z,24.92
2018-12-26T21:12:54.018Z,23.92
2018-12-26T21:15:22.850Z,28.07
2018-12-26T21:17:54.493Z,27.65
2018-12-26T21:20:22.998Z,26.52
2018-12-26T21:22:50.577Z,25.35
2018-12-26T21:25:18.187Z,25.80
2018-12-26T21:27:45.472Z,33.63
2018-12-26T21:30:15.191Z,26.62
2018-12-26T21:32:42.453Z,24.05
2018-12-26T21:35:09.734Z,26.48
2018-12-26T21:37:36.933Z,26.45
2018-12-26T21:40:04.902Z,43.38
2018-12-26T21:42:32.311Z,28.95
2018-12-26T21:45:00.234Z,30.88
2018-12-26T21:47:27.396Z,30.05
2018-12-26T21:49:54.836Z,30.02
2018-12-26T21:52:22.246Z,33.98
2018-12-26T21:54:50.011Z,27.22
2018-12-26T21:57:17.193Z,28.75
2018-12-26T21:59:44.348Z,30.77
2018-12-26T22:02:11.513Z,30.05
2018-12-26T22:04:41.532Z,30.00
2018-12-26T22:07:08.653Z,29.07
2018-12-26T22:09:35.852Z,25.97
2018-12-26T22:12:02.992Z,28.95
2018-12-26T22:14:30.131Z,28.55
2018-12-26T22:16:57.600Z,27.77
2018-12-26T22:19:25.069Z,29.92
2018-12-26T22:21:52.260Z,27.60
2018-12-26T22:24:19.429Z,28.47
2018-12-26T22:26:46.597Z,29.32
2018-12-26T22:29:13.946Z,29.45
2018-12-26T22:31:41.429Z,29.05
2018-12-26T22:34:08.549Z,28.40
2018-12-26T22:36:35.708Z,28.00
2018-12-26T22:39:04.666Z,30.72
2018-12-26T22:41:32.074Z,28.67
2018-12-26T22:43:59.259Z,27.25
2018-12-26T22:46:26.400Z,26.77
2018-12-26T22:48:53.889Z,26.15
2018-12-26T22:51:21.024Z,23.83
2018-12-26T22:53:48.179Z,24.23
2018-12-26T22:56:15.307Z,25.45
2018-12-26T22:58:42.398Z,24.12
2018-12-26T23:01:09.547Z,25.90
2018-12-26T23:03:36.662Z,24.18
2018-12-26T23:06:03.795Z,25.75
2018-12-26T23:08:30.926Z,24.80
2018-12-26T23:10:58.048Z,25.57
2018-12-26T23:13:25.184Z,25.57
2018-12-26T23:15:52.306Z,26.10
2018-12-26T23:18:19.398Z,26.73
2018-12-26T23:20:46.534Z,25.10
2018-12-26T23:23:13.727Z,28.40
2018-12-26T23:25:40.791Z,29.07
2018-12-26T23:28:07.858Z,28.45
2018-12-26T23:30:34.920Z,26.70
2018-12-26T23:33:02.021Z,31.57
2018-12-26T23:35:29.087Z,30.75
2018-12-26T23:37:56.148Z,33.08
2018-12-26T23:40:23.222Z,31.87
2018-12-26T23:42:50.276Z,30.57
2018-12-26T23:45:17.346Z,31.05
2018-12-26T23:47:44.382Z,33.42
2018-12-26T23:50:11.433Z,29.05
2018-12-26T23:52:38.494Z,29.65
2018-12-26T23:55:05.545Z,31.95
2018-12-26T23:57:32.610Z,27.50
2018-12-26T23:59:59.657Z,26.90
